sensor_id;sensor_type;location;lat;lon;timestamp;pressure;altitude;pressure_sealevel;temperature;humidity
19600;BME280;9947;57.722;12.012;2024-02-15T00:01:34;102277.75;;;2.14;100.00
19600;BME280;9947;57.722;12.012;2024-02-15T00:04:01;102289.25;;;2.17;100.00
19600;BME280;9947;57.722;12.012;2024-02-15T00:06:31;102287.44;;;2.20;100.00
19600;BME280;9947;57.722;12.012;2024-02-15T00:08:58;102291.06;;;2.15;100.00
19600;BME280;9947;57.722;12.012;2024-02-15T00:11:26;102288.38;;;2.15;100.00
19600;BME280;9947;57.722;12.012;2024-02-15T00:13:55;102284.84;;;2.15;100.00
19600;BME280;9947;57.722;12.012;2024-02-15T00:16:23;102291.94;;;2.16;100.00
19600;BME280;9947;57.722;12.012;2024-02-15T00:18:54;102291.06;;;2.15;100.00
19600;BME280;9947;57.722;12.012;2024-02-15T00:21:23;102285.78;;;2.12;100.00
19600;BME280;9947;57.722;12.012;2024-02-15T00:23:55;102277.81;;;2.08;100.00
19600;BME280;9947;57.722;12.012;2024-02-15T00:26:26;102283.16;;;2.09;100.00
19600;BME280;9947;57.722;12.012;2024-02-15T00:28:55;102284.06;;;2.08;100.00
19600;BME280;9947;57.722;12.012;2024-02-15T00:31:24;102274.31;;;2.06;100.00
19600;BME280;9947;57.722;12.012;2024-02-15T00:33:51;102270.78;;;2.04;100.00
19600;BME280;9947;57.722;12.012;2024-02-15T00:36:20;102270.75;;;2.05;100.00
19600;BME280;9947;57.722;12.012;2024-02-15T00:38:49;102264.56;;;2.03;100.00
19600;BME280;9947;57.722;12.012;2024-02-15T00:41:17;102276.94;;;2.07;100.00
19600;BME280;9947;57.722;12.012;2024-02-15T00:43:47;102271.63;;;2.06;100.00
19600;BME280;9947;57.722;12.012;2024-02-15T00:46:16;102282.28;;;2.07;100.00
19600;BME280;9947;57.722;12.012;2024-02-15T00:48:44;102274.28;;;2.09;100.00
19600;BME280;9947;57.722;12.012;2024-02-15T00:51:12;102276.06;;;2.08;100.00
19600;BME280;9947;57.722;12.012;2024-02-15T00:53:41;102274.31;;;2.06;100.00
19600;BME280;9947;57.722;12.012;2024-02-15T00:56:08;102284.69;;;2.23;100.00
19600;BME280;9947;57.722;12.012;2024-02-15T00:58:37;102281.25;;;2.16;100.00
19600;BME280;9947;57.722;12.012;2024-02-15T01:01:06;102270.72;;;2.10;100.00
19600;BME280;9947;57.722;12.012;2024-02-15T01:03:35;102266.28;;;2.07;100.00
19600;BME280;9947;57.722;12.012;2024-02-15T01:06:04;102284.75;;;2.20;100.00
19600;BME280;9947;57.722;12.012;2024-02-15T01:08:37;102286.53;;;2.19;100.00
19600;BME280;9947;57.722;12.012;2024-02-15T01:11:04;102279.53;;;2.13;100.00
19600;BME280;9947;57.722;12.012;2024-02-15T01:13:32;102286.59;;;2.16;100.00
19600;BME280;9947;57.722;12.012;2024-02-15T01:16:00;102287.44;;;2.20;100.00
19600;BME280;9947;57.722;12.012;2024-02-15T01:18:28;102282.09;;;2.20;100.00
19600;BME280;9947;57.722;12.012;2024-02-15T01:21:06;102283.94;;;2.16;100.00
19600;BME280;9947;57.722;12.012;2024-02-15T01:23:37;102275.13;;;2.11;100.00
19600;BME280;9947;57.722;12.012;2024-02-15T01:26:07;102275.16;;;2.09;100.00
19600;BME280;9947;57.722;12.012;2024-02-15T01:28:36;102276.06;;;2.08;100.00
19600;BME280;9947;57.722;12.012;2024-02-15T01:31:11;102267.19;;;2.06;100.00
19600;BME280;9947;57.722;12.012;2024-02-15T01:33:44;102263.63;;;2.06;100.00
19600;BME280;9947;57.722;12.012;2024-02-15T01:36:17;102265.41;;;2.07;100.00
19600;BME280;9947;57.722;12.012;2024-02-15T01:38:48;102271.53;;;2.13;100.00
19600;BME280;9947;57.722;12.012;2024-02-15T01:41:17;102270.69;;;2.11;100.00
19600;BME280;9947;57.722;12.012;2024-02-15T01:43:48;102260.94;;;2.07;100.00
19600;BME280;9947;57.722;12.012;2024-02-15T01:46:17;102270.72;;;2.10;100.00
19600;BME280;9947;57.722;12.012;2024-02-15T01:48:48;102263.66;;;2.04;100.00
19600;BME280;9947;57.722;12.012;2024-02-15T01:51:22;102263.66;;;2.04;100.00
19600;BME280;9947;57.722;12.012;2024-02-15T01:53:53;102270.81;;;2.02;100.00
19600;BME280;9947;57.722;12.012;2024-02-15T01:56:34;102269.06;;;2.01;100.00
19600;BME280;9947;57.722;12.012;2024-02-15T01:59:03;102276.06;;;2.08;100.00
19600;BME280;9947;57.722;12.012;2024-02-15T02:01:36;102265.53;;;1.99;100.00
19600;BME280;9947;57.722;12.012;2024-02-15T02:04:03;102258.44;;;1.98;100.00
19600;BME280;9947;57.722;12.012;2024-02-15T02:06:34;102255.75;;;2.00;100.00
19600;BME280;9947;57.722;12.012;2024-02-15T02:09:03;102245.06;;;2.01;100.00
19600;BME280;9947;57.722;12.012;2024-02-15T02:11:31;102243.25;;;2.02;100.00
19600;BME280;9947;57.722;12.012;2024-02-15T02:13:59;102242.38;;;2.01;100.00
19600;BME280;9947;57.722;12.012;2024-02-15T02:16:26;102234.41;;;2.00;100.00
19600;BME280;9947;57.722;12.012;2024-02-15T02:18:55;102226.38;;;2.01;100.00
19600;BME280;9947;57.722;12.012;2024-02-15T02:21:22;102225.50;;;2.01;100.00
19600;BME280;9947;57.722;12.012;2024-02-15T02:23:52;102230.00;;;1.97;100.00
19600;BME280;9947;57.722;12.012;2024-02-15T02:26:22;102236.94;;;2.09;100.00
19600;BME280;9947;57.722;12.012;2024-02-15T02:28:51;102230.81;;;2.02;100.00
19600;BME280;9947;57.722;12.012;2024-02-15T02:31:21;102216.69;;;1.97;100.00
19600;BME280;9947;57.722;12.012;2024-02-15T02:33:53;102220.22;;;1.98;100.00
19600;BME280;9947;57.722;12.012;2024-02-15T02:36:22;102228.97;;;2.06;100.00
19600;BME280;9947;57.722;12.012;2024-02-15T02:38:52;102221.91;;;2.03;100.00
19600;BME280;9947;57.722;12.012;2024-02-15T02:41:19;102217.50;;;2.01;100.00
19600;BME280;9947;57.722;12.012;2024-02-15T02:43:48;102211.28;;;2.00;100.00
19600;BME280;9947;57.722;12.012;2024-02-15T02:46:15;102215.78;;;1.98;100.00
19600;BME280;9947;57.722;12.012;2024-02-15T02:48:43;102207.00;;;1.92;100.00
19600;BME280;9947;57.722;12.012;2024-02-15T02:51:10;102207.81;;;1.95;100.00
19600;BME280;9947;57.722;12.012;2024-02-15T02:53:38;102210.50;;;1.95;100.00
19600;BME280;9947;57.722;12.012;2024-02-15T02:56:11;102213.97;;;1.99;100.00
19600;BME280;9947;57.722;12.012;2024-02-15T02:58:42;102211.34;;;1.97;100.00
19600;BME280;9947;57.722;12.012;2024-02-15T03:01:11;102211.41;;;1.94;100.00
19600;BME280;9947;57.722;12.012;2024-02-15T03:03:40;102208.72;;;1.96;100.00
19600;BME280;9947;57.722;12.012;2024-02-15T03:06:09;102216.66;;;1.99;100.00
19600;BME280;9947;57.722;12.012;2024-02-15T03:08:37;102221.91;;;2.03;100.00
19600;BME280;9947;57.722;12.012;2024-02-15T03:11:06;102217.41;;;2.05;100.00
19600;BME280;9947;57.722;12.012;2024-02-15T03:13:37;102220.13;;;2.02;100.00
19600;BME280;9947;57.722;12.012;2024-02-15T03:16:16;102215.78;;;1.98;100.00
19600;BME280;9947;57.722;12.012;2024-02-15T03:18:43;102217.63;;;1.95;100.00
19600;BME280;9947;57.722;12.012;2024-02-15T03:21:11;102220.22;;;1.98;100.00
19600;BME280;9947;57.722;12.012;2024-02-15T03:23:39;102215.81;;;1.95;100.00
19600;BME280;9947;57.722;12.012;2024-02-15T03:26:08;102217.56;;;1.98;100.00
19600;BME280;9947;57.722;12.012;2024-02-15T03:28:35;102216.72;;;1.94;100.00
19600;BME280;9947;57.722;12.012;2024-02-15T03:31:03;102222.00;;;1.97;100.00
19600;BME280;9947;57.722;12.012;2024-02-15T03:33:36;102220.25;;;1.96;100.00
19600;BME280;9947;57.722;12.012;2024-02-15T03:36:06;102213.09;;;1.98;100.00
19600;BME280;9947;57.722;12.012;2024-02-15T03:38:33;102226.28;;;2.09;100.00
19600;BME280;9947;57.722;12.012;2024-02-15T03:41:01;102238.59;;;2.14;100.00
19600;BME280;9947;57.722;12.012;2024-02-15T03:43:31;102244.06;;;2.07;100.00
19600;BME280;9947;57.722;12.012;2024-02-15T03:46:01;102236.19;;;1.99;100.00
19600;BME280;9947;57.722;12.012;2024-02-15T03:48:30;102231.75;;;2.00;100.00
19600;BME280;9947;57.722;12.012;2024-02-15T03:51:01;102232.63;;;2.00;100.00
19600;BME280;9947;57.722;12.012;2024-02-15T03:53:29;102224.59;;;2.02;100.00
19600;BME280;9947;57.722;12.012;2024-02-15T03:55:58;102224.66;;;1.99;100.00
19600;BME280;9947;57.722;12.012;2024-02-15T03:58:26;102223.78;;;1.98;100.00
19600;BME280;9947;57.722;12.012;2024-02-15T04:01:18;102237.09;;;1.98;100.00
19600;BME280;9947;57.722;12.012;2024-02-15T04:03:50;102232.66;;;1.99;100.00
19600;BME280;9947;57.722;12.012;2024-02-15T04:06:21;102237.94;;;2.02;100.00
19600;BME280;9947;57.722;12.012;2024-02-15T04:08:50;102235.31;;;1.99;100.00
19600;BME280;9947;57.722;12.012;2024-02-15T04:11:20;102230.91;;;1.96;100.00
19600;BME280;9947;57.722;12.012;2024-02-15T04:13:47;102240.69;;;1.97;100.00
19600;BME280;9947;57.722;12.012;2024-02-15T04:16:15;102241.53;;;1.99;100.00
19600;BME280;9947;57.722;12.012;2024-02-15T04:18:42;102244.25;;;1.96;100.00
19600;BME280;9947;57.722;12.012;2024-02-15T04:21:10;102239.78;;;1.98;100.00
19600;BME280;9947;57.722;12.012;2024-02-15T04:23:40;102247.00;;;1.92;100.00
19600;BME280;9947;57.722;12.012;2024-02-15T04:26:07;102245.09;;;1.98;100.00
19600;BME280;9947;57.722;12.012;2024-02-15T04:28:35;102241.66;;;1.92;100.00
19600;BME280;9947;57.722;12.012;2024-02-15T04:31:03;102242.50;;;1.95;100.00
19600;BME280;9947;57.722;12.012;2024-02-15T04:33:35;102248.66;;;1.99;100.00
19600;BME280;9947;57.722;12.012;2024-02-15T04:36:08;102246.03;;;1.96;100.00
19600;BME280;9947;57.722;12.012;2024-02-15T04:38:40;102241.63;;;1.95;100.00
19600;BME280;9947;57.722;12.012;2024-02-15T04:41:08;102236.28;;;1.95;100.00
19600;BME280;9947;57.722;12.012;2024-02-15T04:43:37;102238.06;;;1.94;100.00
19600;BME280;9947;57.722;12.012;2024-02-15T04:46:06;102233.72;;;1.89;100.00
19600;BME280;9947;57.722;12.012;2024-02-15T04:48:35;102221.25;;;1.91;100.00
19600;BME280;9947;57.722;12.012;2024-02-15T04:51:04;102226.63;;;1.88;100.00
19600;BME280;9947;57.722;12.012;2024-02-15T04:53:31;102234.59;;;1.91;100.00
19600;BME280;9947;57.722;12.012;2024-02-15T04:58:26;102249.63;;;1.95;100.00
19600;BME280;9947;57.722;12.012;2024-02-15T05:00:54;102254.00;;;1.99;100.00
19600;BME280;9947;57.722;12.012;2024-02-15T05:03:25;102246.03;;;1.96;100.00
19600;BME280;9947;57.722;12.012;2024-02-15T05:05:52;102251.47;;;1.91;100.00
19600;BME280;9947;57.722;12.012;2024-02-15T05:08:22;102250.56;;;1.92;100.00
19600;BME280;9947;57.722;12.012;2024-02-15T05:10:50;102237.22;;;1.92;100.00
19600;BME280;9947;57.722;12.012;2024-02-15T05:13:23;102244.31;;;1.93;100.00
19600;BME280;9947;57.722;12.012;2024-02-15T05:15:53;102252.25;;;1.96;100.00
19600;BME280;9947;57.722;12.012;2024-02-15T05:18:23;102259.38;;;1.96;100.00
19600;BME280;9947;57.722;12.012;2024-02-15T05:20:51;102256.81;;;1.90;100.00
19600;BME280;9947;57.722;12.012;2024-02-15T05:23:19;102261.16;;;1.95;100.00
19600;BME280;9947;57.722;12.012;2024-02-15T05:25:48;102266.47;;;1.97;100.00
19600;BME280;9947;57.722;12.012;2024-02-15T05:28:16;102254.97;;;1.93;100.00
19600;BME280;9947;57.722;12.012;2024-02-15T05:30:46;102264.59;;;2.02;100.00
19600;BME280;9947;57.722;12.012;2024-02-15T05:33:16;102253.22;;;1.92;100.00
19600;BME280;9947;57.722;12.012;2024-02-15T05:35:44;102248.00;;;1.86;100.00
19600;BME280;9947;57.722;12.012;2024-02-15T05:38:15;102233.84;;;1.82;100.00
19600;BME280;9947;57.722;12.012;2024-02-15T05:40:44;102242.66;;;1.86;100.00
19600;BME280;9947;57.722;12.012;2024-02-15T05:43:11;102256.78;;;1.91;100.00
19600;BME280;9947;57.722;12.012;2024-02-15T05:45:43;102267.53;;;1.87;100.00
19600;BME280;9947;57.722;12.012;2024-02-15T05:48:13;102262.22;;;1.87;100.00
19600;BME280;9947;57.722;12.012;2024-02-15T05:50:43;102271.97;;;1.88;100.00
19600;BME280;9947;57.722;12.012;2024-02-15T05:53:13;102276.38;;;1.90;100.00
19600;BME280;9947;57.722;12.012;2024-02-15T05:55:41;102287.97;;;1.88;100.00
19600;BME280;9947;57.722;12.012;2024-02-15T05:58:10;102290.50;;;1.95;100.00
19600;BME280;9947;57.722;12.012;2024-02-15T06:00:44;102289.69;;;1.90;100.00
19600;BME280;9947;57.722;12.012;2024-02-15T06:03:15;102291.47;;;1.91;100.00
19600;BME280;9947;57.722;12.012;2024-02-15T06:05:47;102285.16;;;1.95;100.00
19600;BME280;9947;57.722;12.012;2024-02-15T06:08:14;102286.03;;;1.97;100.00
19600;BME280;9947;57.722;12.012;2024-02-15T06:10:43;102286.97;;;1.93;100.00
19600;BME280;9947;57.722;12.012;2024-02-15T06:13:16;102293.22;;;1.92;100.00
19600;BME280;9947;57.722;12.012;2024-02-15T06:15:45;102309.19;;;1.94;100.00
19600;BME280;9947;57.722;12.012;2024-02-15T06:18:19;102315.31;;;2.00;100.00
19600;BME280;9947;57.722;12.012;2024-02-15T06:20:52;102310.97;;;1.93;100.00
19600;BME280;9947;57.722;12.012;2024-02-15T06:23:23;102317.16;;;1.97;100.00
19600;BME280;9947;57.722;12.012;2024-02-15T06:25:53;102303.94;;;1.89;100.00
19600;BME280;9947;57.722;12.012;2024-02-15T06:28:24;102315.47;;;1.91;100.00
19600;BME280;9947;57.722;12.012;2024-02-15T06:31:05;102302.19;;;1.88;100.00
19600;BME280;9947;57.722;12.012;2024-02-15T06:33:50;102302.19;;;1.88;100.00
19600;BME280;9947;57.722;12.012;2024-02-15T06:36:39;102303.94;;;1.89;100.00
19600;BME280;9947;57.722;12.012;2024-02-15T06:39:23;102307.41;;;1.94;100.00
19600;BME280;9947;57.722;12.012;2024-02-15T06:42:07;102308.31;;;1.93;100.00
19600;BME280;9947;57.722;12.012;2024-02-15T06:44:36;102314.47;;;1.97;100.00
19600;BME280;9947;57.722;12.012;2024-02-15T06:47:06;102315.34;;;1.97;100.00
19600;BME280;9947;57.722;12.012;2024-02-15T06:49:37;102327.78;;;1.98;100.00
19600;BME280;9947;57.722;12.012;2024-02-15T06:52:11;102324.41;;;1.89;100.00
19600;BME280;9947;57.722;12.012;2024-02-15T06:54:39;102320.84;;;1.88;100.00
19600;BME280;9947;57.722;12.012;2024-02-15T06:57:21;102323.56;;;1.85;100.00
19600;BME280;9947;57.722;12.012;2024-02-15T06:59:54;102323.47;;;1.91;100.00
19600;BME280;9947;57.722;12.012;2024-02-15T07:02:22;102325.16;;;1.95;100.00
19600;BME280;9947;57.722;12.012;2024-02-15T07:04:49;102322.53;;;1.94;100.00
19600;BME280;9947;57.722;12.012;2024-02-15T07:07:20;102331.41;;;1.94;100.00
19600;BME280;9947;57.722;12.012;2024-02-15T07:09:47;102345.53;;;2.01;100.00
19600;BME280;9947;57.722;12.012;2024-02-15T07:12:17;102339.47;;;1.91;100.00
19600;BME280;9947;57.722;12.012;2024-02-15T07:14:46;102343.97;;;1.88;100.00
19600;BME280;9947;57.722;12.012;2024-02-15T07:17:13;102351.00;;;1.92;100.00
19600;BME280;9947;57.722;12.012;2024-02-15T07:19:43;102359.84;;;1.95;100.00
19600;BME280;9947;57.722;12.012;2024-02-15T07:22:11;102354.53;;;1.94;100.00
19600;BME280;9947;57.722;12.012;2024-02-15T07:24:43;102351.97;;;1.88;100.00
19600;BME280;9947;57.722;12.012;2024-02-15T07:27:20;102359.91;;;1.92;100.00
19600;BME280;9947;57.722;12.012;2024-02-15T07:29:50;102358.94;;;1.96;100.00
19600;BME280;9947;57.722;12.012;2024-02-15T07:32:32;102357.19;;;1.94;100.00
19600;BME280;9947;57.722;12.012;2024-02-15T07:35:00;102352.69;;;1.97;100.00
19600;BME280;9947;57.722;12.012;2024-02-15T07:37:36;102360.72;;;1.96;100.00
19600;BME280;9947;57.722;12.012;2024-02-15T07:40:09;102358.97;;;1.95;100.00
19600;BME280;9947;57.722;12.012;2024-02-15T07:42:38;102344.75;;;1.94;100.00
19600;BME280;9947;57.722;12.012;2024-02-15T07:45:06;102350.03;;;1.97;100.00
19600;BME280;9947;57.722;12.012;2024-02-15T07:47:35;102346.41;;;2.01;100.00
19600;BME280;9947;57.722;12.012;2024-02-15T07:50:05;102351.63;;;2.07;100.00
19600;BME280;9947;57.722;12.012;2024-02-15T07:52:36;102354.31;;;2.09;100.00
19600;BME280;9947;57.722;12.012;2024-02-15T07:55:09;102360.34;;;2.20;100.00
19600;BME280;9947;57.722;12.012;2024-02-15T07:57:41;102358.66;;;2.14;100.00
19600;BME280;9947;57.722;12.012;2024-02-15T08:00:13;102370.00;;;2.27;100.00
19600;BME280;9947;57.722;12.012;2024-02-15T08:02:43;102373.56;;;2.28;100.00
19600;BME280;9947;57.722;12.012;2024-02-15T08:05:12;102374.41;;;2.30;100.00
19600;BME280;9947;57.722;12.012;2024-02-15T08:07:43;102371.81;;;2.25;100.00
19600;BME280;9947;57.722;12.012;2024-02-15T08:10:13;102365.59;;;2.25;100.00
19600;BME280;9947;57.722;12.012;2024-02-15T08:12:41;102361.22;;;2.21;100.00
19600;BME280;9947;57.722;12.012;2024-02-15T08:15:10;102354.00;;;2.26;100.00
19600;BME280;9947;57.722;12.012;2024-02-15T08:17:39;102348.50;;;2.38;100.00
19600;BME280;9947;57.722;12.012;2024-02-15T08:20:13;102347.47;;;2.45;100.00
19600;BME280;9947;57.722;12.012;2024-02-15T08:22:47;102332.50;;;2.36;100.00
19600;BME280;9947;57.722;12.012;2024-02-15T08:25:16;102329.78;;;2.39;100.00
19600;BME280;9947;57.722;12.012;2024-02-15T08:27:47;102340.84;;;2.67;100.00
19600;BME280;9947;57.722;12.012;2024-02-15T08:30:16;102334.81;;;2.56;100.00
19600;BME280;9947;57.722;12.012;2024-02-15T08:32:44;102331.72;;;2.79;100.00
19600;BME280;9947;57.722;12.012;2024-02-15T08:35:14;102338.81;;;2.80;100.00
19600;BME280;9947;57.722;12.012;2024-02-15T08:37:43;102316.78;;;2.69;100.00
19600;BME280;9947;57.722;12.012;2024-02-15T08:40:12;102306.19;;;2.64;100.00
19600;BME280;9947;57.722;12.012;2024-02-15T08:42:42;102301.66;;;2.68;100.00
19600;BME280;9947;57.722;12.012;2024-02-15T08:45:11;102292.47;;;2.83;100.00
19600;BME280;9947;57.722;12.012;2024-02-15T08:47:41;102291.53;;;2.87;100.00
19600;BME280;9947;57.722;12.012;2024-02-15T08:50:09;102271.00;;;2.89;100.00
19600;BME280;9947;57.722;12.012;2024-02-15T08:52:36;102245.22;;;2.85;100.00
19600;BME280;9947;57.722;12.012;2024-02-15T08:55:05;102237.22;;;2.85;100.00
19600;BME280;9947;57.722;12.012;2024-02-15T08:57:34;102238.09;;;2.87;100.00
19600;BME280;9947;57.722;12.012;2024-02-15T09:00:04;102233.66;;;2.84;100.00
19600;BME280;9947;57.722;12.012;2024-02-15T09:02:35;102226.41;;;2.92;100.00
19600;BME280;9947;57.722;12.012;2024-02-15T09:05:03;102217.59;;;2.89;100.00
19600;BME280;9947;57.722;12.012;2024-02-15T09:07:30;102205.09;;;2.89;100.00
19600;BME280;9947;57.722;12.012;2024-02-15T09:09:58;102204.03;;;2.96;100.00
19600;BME280;9947;57.722;12.012;2024-02-15T09:12:25;102201.97;;;3.09;100.00
19600;BME280;9947;57.722;12.012;2024-02-15T09:14:52;102198.31;;;3.15;100.00
19600;BME280;9947;57.722;12.012;2024-02-15T09:17:22;102185.56;;;3.26;100.00
19600;BME280;9947;57.722;12.012;2024-02-15T09:19:49;102157.22;;;3.19;100.00
19600;BME280;9947;57.722;12.012;2024-02-15T09:22:18;102135.38;;;3.01;100.00
19600;BME280;9947;57.722;12.012;2024-02-15T09:24:47;102143.75;;;3.23;100.00
19600;BME280;9947;57.722;12.012;2024-02-15T09:27:13;102131.22;;;3.25;100.00
19600;BME280;9947;57.722;12.012;2024-02-15T09:29:41;102129.00;;;3.44;100.00
19600;BME280;9947;57.722;12.012;2024-02-15T09:32:08;102108.44;;;3.46;100.00
19600;BME280;9947;57.722;12.012;2024-02-15T09:34:37;102102.81;;;3.57;100.00
19600;BME280;9947;57.722;12.012;2024-02-15T09:37:04;102084.34;;;3.48;100.00
19600;BME280;9947;57.722;12.012;2024-02-15T09:39:31;102071.16;;;3.42;100.00
19600;BME280;9947;57.722;12.012;2024-02-15T09:41:58;102055.19;;;3.38;100.00
19600;BME280;9947;57.722;12.012;2024-02-15T09:44:26;102033.94;;;3.32;100.00
19600;BME280;9947;57.722;12.012;2024-02-15T09:47:02;102021.41;;;3.34;100.00
19600;BME280;9947;57.722;12.012;2024-02-15T09:49:36;102030.44;;;3.63;100.00
19600;BME280;9947;57.722;12.012;2024-02-15T09:52:06;102003.41;;;3.43;100.00
19600;BME280;9947;57.722;12.012;2024-02-15T09:54:39;101991.59;;;3.50;100.00
19600;BME280;9947;57.722;12.012;2024-02-15T09:57:09;101971.78;;;3.57;100.00
19600;BME280;9947;57.722;12.012;2024-02-15T09:59:37;101968.06;;;3.62;100.00
19600;BME280;9947;57.722;12.012;2024-02-15T10:02:05;101954.00;;;3.56;100.00
19600;BME280;9947;57.722;12.012;2024-02-15T10:04:39;101952.56;;;3.75;100.00
19600;BME280;9947;57.722;12.012;2024-02-15T10:07:08;101932.09;;;3.74;100.00
19600;BME280;9947;57.722;12.012;2024-02-15T10:09:36;101916.91;;;3.75;100.00
19600;BME280;9947;57.722;12.012;2024-02-15T10:12:05;101906.75;;;3.86;100.00
19600;BME280;9947;57.722;12.012;2024-02-15T10:14:34;101895.81;;;3.95;100.00
19600;BME280;9947;57.722;12.012;2024-02-15T10:17:06;101881.31;;;4.02;100.00
19600;BME280;9947;57.722;12.012;2024-02-15T10:19:35;101857.84;;;3.82;100.00
19600;BME280;9947;57.722;12.012;2024-02-15T10:22:11;101842.25;;;3.96;100.00
19600;BME280;9947;57.722;12.012;2024-02-15T10:24:41;101819.38;;;3.86;100.00
19600;BME280;9947;57.722;12.012;2024-02-15T10:27:07;101803.03;;;3.95;100.00
19600;BME280;9947;57.722;12.012;2024-02-15T10:29:36;101786.06;;;3.96;100.00
19600;BME280;9947;57.722;12.012;2024-02-15T10:32:05;101771.66;;;4.00;100.00
19600;BME280;9947;57.722;12.012;2024-02-15T10:34:43;101751.81;;;3.80;100.00
19600;BME280;9947;57.722;12.012;2024-02-15T10:37:15;101745.72;;;3.76;100.00
19600;BME280;9947;57.722;12.012;2024-02-15T10:39:44;101744.94;;;3.72;100.00
19600;BME280;9947;57.722;12.012;2024-02-15T10:42:13;101744.69;;;4.07;100.00
19600;BME280;9947;57.722;12.012;2024-02-15T10:44:41;101722.97;;;4.16;100.00
19600;BME280;9947;57.722;12.012;2024-02-15T10:47:11;101700.25;;;4.02;100.00
19600;BME280;9947;57.722;12.012;2024-02-15T10:49:38;101706.09;;;4.39;100.00
19600;BME280;9947;57.722;12.012;2024-02-15T10:52:09;101682.69;;;4.20;100.00
19600;BME280;9947;57.722;12.012;2024-02-15T10:54:52;101672.03;;;4.19;100.00
19600;BME280;9947;57.722;12.012;2024-02-15T10:57:26;101667.69;;;4.15;100.00
19600;BME280;9947;57.722;12.012;2024-02-15T10:59:58;101669.41;;;4.17;100.00
19600;BME280;9947;57.722;12.012;2024-02-15T11:02:27;101660.53;;;4.15;100.00
19600;BME280;9947;57.722;12.012;2024-02-15T11:05:00;101661.28;;;4.20;100.00
19600;BME280;9947;57.722;12.012;2024-02-15T11:07:30;101647.06;;;4.18;100.00
19600;BME280;9947;57.722;12.012;2024-02-15T11:10:01;101644.16;;;4.24;100.00
19600;BME280;9947;57.722;12.012;2024-02-15T11:12:35;101645.28;;;4.42;100.00
19600;BME280;9947;57.722;12.012;2024-02-15T11:15:04;101639.41;;;4.32;100.00
19600;BME280;9947;57.722;12.012;2024-02-15T11:17:46;101624.34;;;4.30;100.00
19600;BME280;9947;57.722;12.012;2024-02-15T11:20:48;101621.00;;;4.23;100.00
19600;BME280;9947;57.722;12.012;2024-02-15T11:23:26;101618.56;;;4.17;100.00
19600;BME280;9947;57.722;12.012;2024-02-15T11:25:57;101622.81;;;4.23;100.00
19600;BME280;9947;57.722;12.012;2024-02-15T11:28:38;101616.25;;;4.31;100.00
19600;BME280;9947;57.722;12.012;2024-02-15T11:31:14;101594.88;;;4.30;100.00
19600;BME280;9947;57.722;12.012;2024-02-15T11:33:59;101599.75;;;4.44;100.00
19600;BME280;9947;57.722;12.012;2024-02-15T11:36:30;101606.44;;;4.55;100.00
19600;BME280;9947;57.722;12.012;2024-02-15T11:38:59;101588.53;;;4.32;100.00
19600;BME280;9947;57.722;12.012;2024-02-15T11:41:37;101598.44;;;4.30;100.00
19600;BME280;9947;57.722;12.012;2024-02-15T11:44:06;101598.66;;;4.24;100.00
19600;BME280;9947;57.722;12.012;2024-02-15T11:46:33;101600.69;;;4.41;100.00
19600;BME280;9947;57.722;12.012;2024-02-15T11:49:07;101607.47;;;4.28;100.00
19600;BME280;9947;57.722;12.012;2024-02-15T11:51:43;101616.94;;;4.37;100.00
19600;BME280;9947;57.722;12.012;2024-02-15T11:54:10;101622.34;;;4.35;100.00
19600;BME280;9947;57.722;12.012;2024-02-15T11:56:52;101636.13;;;4.24;100.00
19600;BME280;9947;57.722;12.012;2024-02-15T11:59:30;101659.34;;;4.49;100.00
19600;BME280;9947;57.722;12.012;2024-02-15T12:02:08;101658.84;;;4.38;100.00
19600;BME280;9947;57.722;12.012;2024-02-15T12:04:52;101672.16;;;4.39;100.00
19600;BME280;9947;57.722;12.012;2024-02-15T12:07:37;101688.50;;;4.31;100.00
19600;BME280;9947;57.722;12.012;2024-02-15T12:10:21;101705.69;;;4.51;100.00
19600;BME280;9947;57.722;12.012;2024-02-15T12:13:10;101712.19;;;4.44;100.00
19600;BME280;9947;57.722;12.012;2024-02-15T12:15:57;101703.69;;;4.31;100.00
19600;BME280;9947;57.722;12.012;2024-02-15T12:18:42;101708.28;;;4.27;100.00
19600;BME280;9947;57.722;12.012;2024-02-15T12:21:14;101709.16;;;4.28;100.00
19600;BME280;9947;57.722;12.012;2024-02-15T12:23:44;101728.06;;;4.23;100.00
19600;BME280;9947;57.722;12.012;2024-02-15T12:26:12;101744.41;;;4.41;100.00
19600;BME280;9947;57.722;12.012;2024-02-15T12:28:42;101731.28;;;4.33;100.00
19600;BME280;9947;57.722;12.012;2024-02-15T12:31:09;101740.09;;;4.37;100.00
19600;BME280;9947;57.722;12.012;2024-02-15T12:33:38;101737.91;;;4.23;100.00
19600;BME280;9947;57.722;12.012;2024-02-15T12:36:06;101748.72;;;4.20;100.00
19600;BME280;9947;57.722;12.012;2024-02-15T12:38:36;101757.13;;;4.08;100.00
19600;BME280;9947;57.722;12.012;2024-02-15T12:41:04;101776.47;;;4.16;100.00
19600;BME280;9947;57.722;12.012;2024-02-15T12:43:47;101789.03;;;4.14;100.00
19600;BME280;9947;57.722;12.012;2024-02-15T12:46:20;101807.22;;;4.04;100.00
19600;BME280;9947;57.722;12.012;2024-02-15T12:48:48;101829.53;;;4.03;100.00
19600;BME280;9947;57.722;12.012;2024-02-15T12:51:19;101857.94;;;4.07;100.00
19600;BME280;9947;57.722;12.012;2024-02-15T12:53:46;101865.81;;;4.12;100.00
19600;BME280;9947;57.722;12.012;2024-02-15T12:56:20;101879.34;;;4.07;100.00
19600;BME280;9947;57.722;12.012;2024-02-15T12:58:51;101889.38;;;4.00;100.00
19600;BME280;9947;57.722;12.012;2024-02-15T13:01:18;101911.19;;;3.87;100.00
19600;BME280;9947;57.722;12.012;2024-02-15T13:03:45;101925.09;;;3.99;100.00
19600;BME280;9947;57.722;12.012;2024-02-15T13:06:16;101938.47;;;3.99;100.00
19600;BME280;9947;57.722;12.012;2024-02-15T13:08:44;101948.53;;;3.91;100.00
19600;BME280;9947;57.722;12.012;2024-02-15T13:11:14;101959.00;;;3.99;100.00